ZSSS

Shanghai Hongqiao International Airport

Shanghai, China
METAR ZSSS 141930Z 10005MPS 070V130 9999 BKN016 29/26 Q1004 NOSIG
Observed Flight Rules
Aug-14 @ 19:30 UTC (26 minutes ago) Marginal Visual Flight Rules
Wind Visibility Clouds
100° at 10 knots 10,000+ meters
  • Broken at 1,600' AGL
Temperatures Readings
Current 29°C / 84°F
Dewpoint 26°C / 79°F
Humidity 84%
Altimeter 29.65" Hg
Pressure 1004 hPa
Elevation 7
METAR ZSSS 141930Z 10005MPS 070V130 9999 BKN016 29/26 Q1004 NOSIG
Observed Flight Rules
Aug-14 @ 19:30 UTC
(26 minutes ago)
MVFR
Wind Visibility
100° at 10 knots 10,000+ meters
Clouds
  • Broken at 1,600' AGL
Temperature Dewpoint
29°C / 84°F 26°C / 79°F
Humidity Altimeter Pressure
84% 29.65" Hg 1004 hPa